Flight Track Log - Related Links

Times and Time Zones

All times are in EDT time to prevent confusion due to time zone crossing. See the SWA1728 flight status page for this flight to view local times or setup timezone preferences in your user account.

Time Position Orientation Groundspeed Altitude Reporting Facility
EDT Latitude Longitude Course Direction KTS MPH feet Rate Location/Type
Mon 01:00:49 PM 36.0764 -115.2400 269° West 219 252 4,500  Level Los Angeles Center
Mon 01:01:50 PM 36.1142 -115.2942 311° West 252 290 6,900 1,935 Climbing Los Angeles Center
Mon 01:02:22 PM 36.1317 -115.2953 357° North 262 302 7,500 1,768 Climbing Los Angeles Center
Mon 01:03:25 PM 36.1867 -115.2175 49° Northeast 266 306 9,700 1,776 Climbing Los Angeles Center
Mon 01:04:27 PM 36.1969 -115.0814 85° East 333 383 11,200 1,984 Climbing Los Angeles Center
Mon 01:05:29 PM 36.1983 -114.9572 89° East 358 412 13,800 2,274 Climbing Los Angeles Center
Mon 01:06:31 PM 36.1997 -114.8308 89° East 365 420 15,900 1,984 Climbing Los Angeles Center
Mon 01:07:33 PM 36.1994 -114.6972 90° East 382 440 17,900 1,935 Climbing Los Angeles Center
Mon 01:08:35 PM 36.1972 -114.5594 91° East 396 456 19,900 1,984 Climbing Los Angeles Center
Mon 01:09:37 PM 36.1958 -114.4197 91° East 403 464 22,000 1,935 Climbing Los Angeles Center
Mon 01:10:39 PM 36.1939 -114.2486 91° East 412 474 23,900 1,645 Climbing Los Angeles Center
Mon 01:11:41 PM 36.2042 -114.1356 84° East 412 474 25,400 1,306 Climbing Los Angeles Center
Mon 01:12:43 PM 36.2236 -113.9922 80° East 418 481 26,600 1,095 Climbing Los Angeles Center
Mon 01:13:58 PM 36.2431 -113.8161 82° East 427 491 27,900 1,445 Climbing Los Angeles Center
Mon 01:15:00 PM 36.2789 -113.6433 76° East 430 495 29,900 1,548 Climbing Los Angeles Center
Mon 01:16:02 PM 36.3172 -113.5083 71° East 420 483 31,100 1,065 Climbing Los Angeles Center
Mon 01:17:04 PM 36.3647 -113.3739 66° East 423 487 32,100 912 Climbing Los Angeles Center
Mon 01:18:07 PM 36.4236 -113.2158 65° Northeast 422 486 33,000 432 Climbing Los Angeles Center
Mon 01:19:09 PM 36.4717 -113.0822 66° East 423 487 33,000  Level Los Angeles Center
Mon 01:20:10 PM 36.5108 -112.9750 66° East 425 489 33,000  Level Los Angeles Center
Mon 01:21:13 PM 36.5742 -112.8003 66° East 426 490 33,000  Level Los Angeles Center
Mon 01:22:15 PM 36.6206 -112.6675 66° East 423 487 33,000  Level Los Angeles Center
Mon 01:23:29 PM 36.6689 -112.5339 66° East 423 487 33,000  Level Los Angeles Center
Mon 01:24:32 PM 36.7261 -112.3742 66° East 423 487 33,000  Level Los Angeles Center
Mon 01:25:46 PM 36.7725 -112.2397 67° East 423 487 33,000  Level Los Angeles Center
Mon 01:26:48 PM 36.8381 -112.0542 66° East 421 484 33,000  Level Los Angeles Center
Mon 01:27:46 PM 36.8831 -111.9231 67° East 422 486 33,000  Level Denver Center
Mon 01:28:48 PM 36.9272 -111.7956 67° East 420 483 33,000  Level Denver Center
Mon 01:29:50 PM 36.9794 -111.6453 66° East 421 484 33,000  Level Denver Center
Mon 01:30:52 PM 37.0244 -111.5175 66° East 420 483 33,000  Level Denver Center
Mon 01:31:54 PM 37.0756 -111.3664 67° East 421 484 33,000  Level Denver Center
Mon 01:32:56 PM 37.1197 -111.2372 67° East 421 484 33,000  Level Denver Center
Mon 01:33:58 PM 37.1711 -111.0869 67° East 419 482 33,000  Level Denver Center
Mon 01:35:00 PM 37.2164 -110.9550 67° East 422 486 33,000  Level Denver Center
Mon 01:36:02 PM 37.2597 -110.8244 67° East 423 487 33,000  Level Denver Center
Mon 01:37:04 PM 37.3108 -110.6731 67° East 422 486 33,000  Level Denver Center
Mon 01:38:06 PM 37.3547 -110.5439 67° East 421 484 33,000  Level Denver Center
Mon 01:39:08 PM 37.4061 -110.3925 67° East 421 484 33,000  Level Denver Center
Mon 01:40:10 PM 37.4511 -110.2603 67° East 425 489 33,000  Level Denver Center
Mon 01:41:12 PM 37.5006 -110.0983 69° East 433 498 33,000  Level Denver Center
Mon 01:42:14 PM 37.5447 -109.9639 67° East 434 499 33,000  Level Denver Center
Mon 01:43:28 PM 37.5983 -109.8025 67° East 439 505 33,000  Level Denver Center
Mon 01:44:31 PM 37.6486 -109.6433 68° East 438 504 33,000  Level Denver Center
Mon 01:45:33 PM 37.7000 -109.4856 68° East 435 501 33,000  Level Denver Center
Mon 01:46:35 PM 37.7433 -109.3489 68° East 438 504 33,000  Level Denver Center
Mon 01:47:37 PM 37.7944 -109.1931 67° East 433 498 33,000  Level Denver Center
Mon 01:48:39 PM 37.8378 -109.0547 68° East 437 503 33,000  Level Denver Center
Mon 01:49:41 PM 37.8878 -108.8947 68° East 437 503 33,000  Level Denver Center
Mon 01:50:43 PM 37.9303 -108.7594 68° East 434 499 33,000  Level Denver Center
Mon 01:51:45 PM 37.9792 -108.6019 68° East 430 495 33,000  Level Denver Center
Mon 01:52:47 PM 38.0214 -108.4672 68° East 429 494 33,000  Level Denver Center
Mon 01:53:49 PM 38.0686 -108.3153 68° East 428 493 33,000  Level Denver Center
Mon 01:54:51 PM 38.1100 -108.1808 69° East 427 491 33,000  Level Denver Center
Mon 01:55:53 PM 38.1567 -108.0242 69° East 424 488 33,000  Level Denver Center
Mon 01:56:55 PM 38.1978 -107.8889 69° East 427 491 33,000  Level Denver Center
Mon 01:57:57 PM 38.2450 -107.7336 69° East 424 488 33,000  Level Denver Center
Mon 01:58:59 PM 38.2858 -107.5983 69° East 426 490 33,000  Level Denver Center
Mon 02:00:01 PM 38.3344 -107.4389 69° East 433 498 33,000  Level Denver Center
Mon 02:01:03 PM 38.3789 -107.3064 67° East 429 494 33,000  Level Denver Center
Mon 02:02:06 PM 38.4294 -107.1767 64° Northeast 428 493 33,000  Level Denver Center
Mon 02:03:20 PM 38.4922 -107.0144 64° Northeast 426 490 33,000  Level Denver Center
Mon 02:04:22 PM 38.5550 -106.8525 64° Northeast 425 489 33,000  Level Denver Center
Mon 02:05:24 PM 38.6069 -106.7147 64° Northeast 431 496 33,000  Level Denver Center
Mon 02:06:26 PM 38.6597 -106.5758 64° Northeast 436 502 33,000  Level Denver Center
Mon 02:07:28 PM 38.7139 -106.4350 64° Northeast 443 510 33,000  Level Denver Center
Mon 02:08:30 PM 38.7658 -106.2956 64° Northeast 438 504 33,000  Level Denver Center
Mon 02:09:32 PM 38.8233 -106.1436 64° Northeast 433 498 33,000  Level Denver Center
Mon 02:10:34 PM 38.8747 -106.0036 65° Northeast 430 495 33,000  Level Denver Center
Mon 02:11:36 PM 38.9267 -105.8619 65° Northeast 433 498 33,000  Level Denver Center
Mon 02:12:38 PM 38.9883 -105.6981 64° Northeast 434 499 33,000  Level Denver Center
Mon 02:13:40 PM 39.0400 -105.5569 65° Northeast 432 497 33,000  Level Denver Center
Mon 02:14:42 PM 39.0919 -105.4150 65° Northeast 435 501 33,000  Level Denver Center
Mon 02:15:44 PM 39.1442 -105.2703 65° Northeast 442 509 33,000  Level Denver Center
Mon 02:16:46 PM 39.1958 -105.1286 65° Northeast 432 497 33,000  Level Denver Center
Mon 02:17:48 PM 39.2494 -104.9814 65° Northeast 445 512 33,000  Level Denver Center
Mon 02:18:50 PM 39.3017 -104.8394 65° Northeast 438 504 33,000  Level Denver Center
Mon 02:19:52 PM 39.3608 -104.6725 65° Northeast 438 504 33,000  Level Denver Center
Mon 02:20:54 PM 39.4119 -104.5269 66° East 447 514 33,000  Level Denver Center
Mon 02:21:56 PM 39.4631 -104.3814 66° East 447 514 33,000  Level Denver Center
Mon 02:22:58 PM 39.5147 -104.2358 65° Northeast 446 513 33,000  Level Denver Center
Mon 02:23:59 PM 39.5656 -104.0892 66° East 446 513 33,000  Level Denver Center
Mon 02:25:01 PM 39.6175 -103.9406 66° East 449 517 33,000  Level Denver Center
Mon 02:26:03 PM 39.6761 -103.7661 66° East 449 517 33,000  Level Denver Center
Mon 02:27:05 PM 39.7283 -103.6219 65° Northeast 439 505 33,000  Level Denver Center
Mon 02:28:07 PM 39.7783 -103.4747 66° East 441 507 33,000  Level Denver Center
Mon 02:29:09 PM 39.8289 -103.3275 66° East 442 509 33,000  Level Denver Center
Mon 02:30:11 PM 39.8772 -103.1806 67° East 439 505 33,000  Level Denver Center
Mon 02:31:13 PM 39.9264 -103.0356 66° East 436 502 33,000  Level Denver Center
Mon 02:32:15 PM 39.9772 -102.8892 66° East 438 504 33,000  Level Denver Center
Mon 02:33:16 PM 40.0178 -102.7650 67° East 441 507 33,000  Level Denver Center
Mon 02:34:19 PM 40.0811 -102.5731 67° East 453 521 33,000  Level Denver Center
Mon 02:35:20 PM 40.1211 -102.4531 66° East 453 521 33,000  Level Denver Center
Mon 02:36:22 PM 40.1858 -102.2583 66° East 458 527 33,000  Level Denver Center
Mon 02:37:24 PM 40.2319 -102.1142 67° East 451 519 33,000  Level Denver Center
Mon 02:38:26 PM 40.2667 -101.9358 76° East 450 518 33,000  Level Denver Center
Mon 02:39:28 PM 40.2994 -101.7872 74° East 446 513 33,000  Level Denver Center
Mon 02:40:29 PM 40.3306 -101.6383 75° East 443 510 33,000  Level Denver Center
Mon 02:41:31 PM 40.3672 -101.4650 74° East 443 510 33,000  Level Denver Center
Mon 02:42:33 PM 40.4044 -101.2931 74° East 440 506 33,000  Level Denver Center
Mon 02:43:35 PM 40.4347 -101.1467 75° East 438 504 33,000  Level Denver Center
Mon 02:44:36 PM 40.4697 -100.9764 75° East 435 501 33,000  Level Denver Center
Mon 02:45:38 PM 40.4994 -100.8294 75° East 437 503 33,000  Level Denver Center
Mon 02:46:40 PM 40.5339 -100.6597 75° East 436 502 33,000  Level Denver Center
Mon 02:47:42 PM 40.5642 -100.5122 75° East 440 506 33,000  Level Denver Center
Mon 02:48:43 PM 40.5994 -100.3378 75° East 446 513 33,000  Level Denver Center
Mon 02:49:45 PM 40.6292 -100.1850 76° East 451 519 33,000  Level Denver Center
Mon 02:50:47 PM 40.6647 -100.0072 75° East 451 519 33,000  Level Denver Center
Mon 02:51:48 PM 40.6969 -99.8433 75° East 452 520 33,000  Level Denver Center
Mon 02:53:02 PM 40.7272 -99.6842 76° East 449 517 33,000  Level Denver Center
Mon 02:54:04 PM 40.7642 -99.4944 76° East 446 513 33,000  Level Denver Center
Mon 02:55:06 PM 40.7950 -99.3369 75° East 445 512 33,000  Level Denver Center
Mon 02:56:07 PM 40.8244 -99.1803 76° East 443 510 33,000  Level Denver Center
Mon 02:57:09 PM 40.8539 -99.0219 76° East 444 511 33,000  Level Denver Center
Mon 02:58:11 PM 40.8869 -98.8464 76° East 443 510 33,000  Level Denver Center
Mon 02:59:12 PM 40.9181 -98.6803 76° East 442 509 33,000  Level Denver Center
Mon 03:00:18 PM 40.9458 -98.5292 76° East 443 510 33,000  Level Minneapolis Center
Mon 03:01:20 PM 40.9739 -98.3669 77° East 444 511 33,000  Level Minneapolis Center
Mon 03:02:21 PM 41.0197 -98.1819 72° East 443 510 33,000  Level Minneapolis Center
Mon 03:03:23 PM 41.0608 -98.0278 70° East 445 512 33,000 -780 Level Minneapolis Center
Mon 03:04:24 PM 41.1019 -97.8731 71° East 446 513 31,400 -2,098 Descending Minneapolis Center
Mon 03:05:26 PM 41.1442 -97.7164 70° East 449 517 28,700 -2,439 Descending Minneapolis Center
Mon 03:06:27 PM 41.1850 -97.5622 71° East 448 516 26,400 -2,195 Descending Minneapolis Center
Mon 03:07:29 PM 41.2242 -97.4086 71° East 443 510 24,200 -2,098 Descending Minneapolis Center
Mon 03:08:30 PM 41.2622 -97.2581 71° East 439 505 22,100 -2,357 Descending Minneapolis Center
Mon 03:08:53 PM 41.2664 -97.1811 86° East 429 494 20,900 -2,032 Descending Minneapolis Center
Mon 03:09:32 PM 41.3008 -97.1111 57° Northeast 431 496 20,000 -1,967 Descending Minneapolis Center
Mon 03:09:54 PM 41.3064 -97.0386 84° East 416 479 18,900 -2,852 Descending Minneapolis Center
Mon 03:10:33 PM 41.3458 -96.9372 63° Northeast 421 484 17,100 -2,754 Descending Minneapolis Center
Mon 03:10:55 PM 41.3444 -96.8989 93° East 408 470 16,100 -3,194 Descending Minneapolis Center
Mon 03:11:35 PM 41.3558 -96.7897 82° East 417 480 13,800 -3,246 Descending Minneapolis Center
Mon 03:11:56 PM 41.3356 -96.7444 121° Southeast 417 480 12,800 -2,613 Descending Minneapolis Center
Mon 03:12:37 PM 41.3292 -96.6417 95° East 415 478 11,100 -2,500 Descending Minneapolis Center
Mon 03:12:56 PM 41.3097 -96.5892 116° Southeast 403 464 10,300 -885 Descending Minneapolis Center
Mon 03:13:38 PM 41.3053 -96.5042 94° East 399 459 10,200 -295 Descending Minneapolis Center
Mon 03:13:57 PM 41.2917 -96.4664 116° Southeast 311 358 10,000 -1,355 Descending Minneapolis Center
Mon 03:14:40 PM 41.2864 -96.3947 96° East 326 375 8,800 -1,869 Descending Minneapolis Center
Mon 03:14:58 PM 41.2725 -96.3547 115° Southeast 309 356 8,100 -1,672 Descending Minneapolis Center
Mon 03:15:41 PM 41.2664 -96.2853 97° East 311 358 7,100 -1,574 Descending Minneapolis Center
Mon 03:15:59 PM 41.2569 -96.2428 106° East 308 354 6,500 -677 Descending Minneapolis Center
Mon 03:16:43 PM 41.2767 -96.1822 67° East 301 346 6,400 -100 Descending Minneapolis Center
Mon 03:16:59 PM 41.2847 -96.1508 71° East 250 288 6,400 -295 Level Minneapolis Center
Mon 03:17:44 PM 41.3136 -96.1144 43° Northeast 260 299 6,100 -689 Descending Minneapolis Center
Mon 03:18:00 PM 41.3322 -96.1094 11° North 191 220 5,700 -1,161 Descending Minneapolis Center
Mon 03:18:46 PM 41.3683 -96.0942 18° North 220 253 4,900 -1,279 Descending Minneapolis Center
Mon 03:19:01 PM 41.3850 -96.0869 18° North 194 223 4,400 -1,279 Descending Minneapolis Center
Mon 03:19:47 PM 41.3831 -96.0336 93° East 212 244 3,600 -1,279 Descending Minneapolis Center
Mon 03:20:02 PM 41.3761 -96.0103 112° Southeast 192 221 3,100 -1,161 Descending Minneapolis Center
Mon 03:20:49 PM 41.3692 -95.9628 101° East 198 228 2,400 -833 Descending Minneapolis Center
Mon 03:21:50 PM 41.3358 -95.9253 140° Southeast 169 194 1,600 -590 Descending Minneapolis Center
Mon 03:22:51 PM 41.3000 -95.8933 146° Southeast 156 180 1,200 -393 Descending Minneapolis Center
Mon 03:24:00 PM 41.3000 -95.8833 North  Level FlightAware Approximate

Login

Don't have an account? Register now (free) for customized features, flight alerts, and more!